sensor_id;sensor_type;location;lat;lon;timestamp;P1;durP1;ratioP1;P2;durP2;ratioP2
56960;SDS011;42857;49.768;22.716;2022-09-29T00:00:43;0.70;;;0.70;;
56960;SDS011;42857;49.768;22.716;2022-09-29T00:03:09;4.13;;;1.98;;
56960;SDS011;42857;49.768;22.716;2022-09-29T00:05:35;1.25;;;0.70;;
56960;SDS011;42857;49.768;22.716;2022-09-29T00:08:01;1.67;;;0.88;;
56960;SDS011;42857;49.768;22.716;2022-09-29T00:10:27;1.95;;;0.80;;
56960;SDS011;42857;49.768;22.716;2022-09-29T00:12:53;2.78;;;0.82;;
56960;SDS011;42857;49.768;22.716;2022-09-29T00:15:19;2.30;;;0.80;;
56960;SDS011;42857;49.768;22.716;2022-09-29T00:17:45;6.03;;;0.90;;
56960;SDS011;42857;49.768;22.716;2022-09-29T00:20:11;1.05;;;0.95;;
56960;SDS011;42857;49.768;22.716;2022-09-29T00:22:37;0.93;;;0.70;;
56960;SDS011;42857;49.768;22.716;2022-09-29T00:25:03;0.80;;;0.70;;
56960;SDS011;42857;49.768;22.716;2022-09-29T00:27:29;1.40;;;0.77;;
56960;SDS011;42857;49.768;22.716;2022-09-29T00:29:55;1.40;;;0.75;;
56960;SDS011;42857;49.768;22.716;2022-09-29T00:32:21;3.15;;;0.73;;
56960;SDS011;42857;49.768;22.716;2022-09-29T00:34:46;2.13;;;0.90;;
56960;SDS011;42857;49.768;22.716;2022-09-29T00:37:14;0.73;;;0.70;;
56960;SDS011;42857;49.768;22.716;2022-09-29T00:39:41;0.80;;;0.80;;
56960;SDS011;42857;49.768;22.716;2022-09-29T00:42:08;2.13;;;0.90;;
56960;SDS011;42857;49.768;22.716;2022-09-29T00:44:53;1.33;;;1.08;;
56960;SDS011;42857;49.768;22.716;2022-09-29T00:47:19;0.90;;;0.85;;
56960;SDS011;42857;49.768;22.716;2022-09-29T00:49:54;2.08;;;0.95;;
56960;SDS011;42857;49.768;22.716;2022-09-29T00:52:25;1.27;;;0.90;;
56960;SDS011;42857;49.768;22.716;2022-09-29T00:54:57;1.80;;;0.90;;
56960;SDS011;42857;49.768;22.716;2022-09-29T00:57:27;1.30;;;0.90;;
56960;SDS011;42857;49.768;22.716;2022-09-29T00:59:55;1.38;;;1.00;;
56960;SDS011;42857;49.768;22.716;2022-09-29T01:02:23;1.00;;;0.90;;
56960;SDS011;42857;49.768;22.716;2022-09-29T01:04:49;1.13;;;1.02;;
56960;SDS011;42857;49.768;22.716;2022-09-29T01:07:17;0.80;;;0.80;;
56960;SDS011;42857;49.768;22.716;2022-09-29T01:09:44;0.82;;;0.77;;
56960;SDS011;42857;49.768;22.716;2022-09-29T01:12:10;3.33;;;1.00;;
56960;SDS011;42857;49.768;22.716;2022-09-29T01:14:36;1.00;;;0.80;;
56960;SDS011;42857;49.768;22.716;2022-09-29T01:17:03;0.98;;;0.90;;
56960;SDS011;42857;49.768;22.716;2022-09-29T01:19:38;1.67;;;1.08;;
56960;SDS011;42857;49.768;22.716;2022-09-29T01:22:22;1.38;;;1.10;;
56960;SDS011;42857;49.768;22.716;2022-09-29T01:28:14;1.65;;;1.00;;
56960;SDS011;42857;49.768;22.716;2022-09-29T01:33:30;0.90;;;0.85;;
56960;SDS011;42857;49.768;22.716;2022-09-29T01:36:04;2.17;;;1.20;;
56960;SDS011;42857;49.768;22.716;2022-09-29T01:38:50;1.17;;;1.00;;
56960;SDS011;42857;49.768;22.716;2022-09-29T01:41:22;2.58;;;1.17;;
56960;SDS011;42857;49.768;22.716;2022-09-29T01:44:04;1.05;;;0.95;;
56960;SDS011;42857;49.768;22.716;2022-09-29T01:46:32;1.38;;;0.98;;
56960;SDS011;42857;49.768;22.716;2022-09-29T01:49:00;1.17;;;1.08;;
56960;SDS011;42857;49.768;22.716;2022-09-29T01:51:28;1.30;;;1.15;;
56960;SDS011;42857;49.768;22.716;2022-09-29T01:53:56;4.10;;;1.25;;
56960;SDS011;42857;49.768;22.716;2022-09-29T01:56:37;2.63;;;1.40;;
56960;SDS011;42857;49.768;22.716;2022-09-29T01:59:11;1.75;;;1.15;;
56960;SDS011;42857;49.768;22.716;2022-09-29T02:01:39;2.35;;;1.30;;
56960;SDS011;42857;49.768;22.716;2022-09-29T02:04:08;1.10;;;1.00;;
56960;SDS011;42857;49.768;22.716;2022-09-29T02:06:37;1.70;;;0.93;;
56960;SDS011;42857;49.768;22.716;2022-09-29T02:09:08;1.80;;;1.30;;
56960;SDS011;42857;49.768;22.716;2022-09-29T02:11:37;2.33;;;1.20;;
56960;SDS011;42857;49.768;22.716;2022-09-29T02:16:34;2.97;;;1.15;;
56960;SDS011;42857;49.768;22.716;2022-09-29T02:21:39;2.45;;;1.05;;
56960;SDS011;42857;49.768;22.716;2022-09-29T02:24:05;0.88;;;0.88;;
56960;SDS011;42857;49.768;22.716;2022-09-29T02:26:32;1.20;;;1.10;;
56960;SDS011;42857;49.768;22.716;2022-09-29T02:28:59;3.67;;;1.15;;
56960;SDS011;42857;49.768;22.716;2022-09-29T02:31:25;2.17;;;1.23;;
56960;SDS011;42857;49.768;22.716;2022-09-29T02:33:51;1.17;;;1.00;;
56960;SDS011;42857;49.768;22.716;2022-09-29T02:36:25;1.92;;;1.05;;
56960;SDS011;42857;49.768;22.716;2022-09-29T02:39:01;1.17;;;1.05;;
56960;SDS011;42857;49.768;22.716;2022-09-29T02:44:03;3.33;;;1.33;;
56960;SDS011;42857;49.768;22.716;2022-09-29T02:51:28;3.55;;;1.27;;
56960;SDS011;42857;49.768;22.716;2022-09-29T02:54:07;1.85;;;1.15;;
56960;SDS011;42857;49.768;22.716;2022-09-29T02:56:39;1.23;;;1.00;;
56960;SDS011;42857;49.768;22.716;2022-09-29T02:59:25;2.03;;;1.20;;
56960;SDS011;42857;49.768;22.716;2022-09-29T03:01:54;1.58;;;1.25;;
56960;SDS011;42857;49.768;22.716;2022-09-29T03:04:21;1.27;;;1.10;;
56960;SDS011;42857;49.768;22.716;2022-09-29T03:06:48;3.15;;;2.15;;
56960;SDS011;42857;49.768;22.716;2022-09-29T03:09:14;3.83;;;1.20;;
56960;SDS011;42857;49.768;22.716;2022-09-29T03:11:40;1.17;;;1.08;;
56960;SDS011;42857;49.768;22.716;2022-09-29T03:14:06;2.22;;;1.23;;
56960;SDS011;42857;49.768;22.716;2022-09-29T03:16:32;2.33;;;1.30;;
56960;SDS011;42857;49.768;22.716;2022-09-29T03:18:59;1.80;;;1.10;;
56960;SDS011;42857;49.768;22.716;2022-09-29T03:21:25;1.17;;;1.08;;
56960;SDS011;42857;49.768;22.716;2022-09-29T03:23:51;2.67;;;1.00;;
56960;SDS011;42857;49.768;22.716;2022-09-29T03:26:17;1.20;;;1.10;;
56960;SDS011;42857;49.768;22.716;2022-09-29T03:28:44;2.80;;;1.17;;
56960;SDS011;42857;49.768;22.716;2022-09-29T03:31:10;2.38;;;1.30;;
56960;SDS011;42857;49.768;22.716;2022-09-29T03:33:37;3.05;;;1.10;;
56960;SDS011;42857;49.768;22.716;2022-09-29T03:36:04;0.93;;;0.90;;
56960;SDS011;42857;49.768;22.716;2022-09-29T03:38:33;1.02;;;1.00;;
56960;SDS011;42857;49.768;22.716;2022-09-29T03:40:59;3.50;;;1.10;;
56960;SDS011;42857;49.768;22.716;2022-09-29T03:43:25;1.40;;;1.25;;
56960;SDS011;42857;49.768;22.716;2022-09-29T03:45:52;1.33;;;1.23;;
56960;SDS011;42857;49.768;22.716;2022-09-29T03:48:18;1.95;;;1.05;;
56960;SDS011;42857;49.768;22.716;2022-09-29T03:50:45;1.48;;;1.05;;
56960;SDS011;42857;49.768;22.716;2022-09-29T03:53:11;1.35;;;1.10;;
56960;SDS011;42857;49.768;22.716;2022-09-29T03:55:38;1.50;;;1.20;;
56960;SDS011;42857;49.768;22.716;2022-09-29T03:58:04;3.22;;;2.15;;
56960;SDS011;42857;49.768;22.716;2022-09-29T04:00:30;3.35;;;1.58;;
56960;SDS011;42857;49.768;22.716;2022-09-29T04:02:56;2.55;;;1.30;;
56960;SDS011;42857;49.768;22.716;2022-09-29T04:05:22;1.63;;;1.40;;
56960;SDS011;42857;49.768;22.716;2022-09-29T04:07:48;1.90;;;1.30;;
56960;SDS011;42857;49.768;22.716;2022-09-29T04:10:14;2.10;;;1.40;;
56960;SDS011;42857;49.768;22.716;2022-09-29T04:12:40;1.98;;;1.33;;
56960;SDS011;42857;49.768;22.716;2022-09-29T04:15:06;4.00;;;1.58;;
56960;SDS011;42857;49.768;22.716;2022-09-29T04:17:32;1.70;;;1.60;;
56960;SDS011;42857;49.768;22.716;2022-09-29T04:19:58;2.58;;;1.40;;
56960;SDS011;42857;49.768;22.716;2022-09-29T04:22:24;1.30;;;1.20;;
56960;SDS011;42857;49.768;22.716;2022-09-29T04:24:50;1.40;;;1.30;;
56960;SDS011;42857;49.768;22.716;2022-09-29T04:27:17;1.13;;;1.00;;
56960;SDS011;42857;49.768;22.716;2022-09-29T04:29:43;2.08;;;1.40;;
56960;SDS011;42857;49.768;22.716;2022-09-29T04:32:09;1.50;;;1.40;;
56960;SDS011;42857;49.768;22.716;2022-09-29T04:34:35;1.30;;;1.20;;
56960;SDS011;42857;49.768;22.716;2022-09-29T04:37:01;1.90;;;1.70;;
56960;SDS011;42857;49.768;22.716;2022-09-29T04:39:27;2.78;;;2.15;;
56960;SDS011;42857;49.768;22.716;2022-09-29T04:41:53;5.38;;;1.80;;
56960;SDS011;42857;49.768;22.716;2022-09-29T04:44:19;1.58;;;1.40;;
56960;SDS011;42857;49.768;22.716;2022-09-29T04:46:48;1.75;;;1.65;;
56960;SDS011;42857;49.768;22.716;2022-09-29T04:49:15;3.65;;;1.92;;
56960;SDS011;42857;49.768;22.716;2022-09-29T04:51:41;1.88;;;1.48;;
56960;SDS011;42857;49.768;22.716;2022-09-29T04:54:07;2.08;;;1.90;;
56960;SDS011;42857;49.768;22.716;2022-09-29T04:56:33;2.33;;;1.58;;
56960;SDS011;42857;49.768;22.716;2022-09-29T04:58:59;1.98;;;1.80;;
56960;SDS011;42857;49.768;22.716;2022-09-29T05:01:25;2.05;;;1.85;;
56960;SDS011;42857;49.768;22.716;2022-09-29T05:03:51;2.28;;;1.77;;
56960;SDS011;42857;49.768;22.716;2022-09-29T05:06:17;2.75;;;2.28;;
56960;SDS011;42857;49.768;22.716;2022-09-29T05:08:43;4.45;;;1.98;;
56960;SDS011;42857;49.768;22.716;2022-09-29T05:11:09;2.30;;;1.88;;
56960;SDS011;42857;49.768;22.716;2022-09-29T05:13:35;1.95;;;1.42;;
56960;SDS011;42857;49.768;22.716;2022-09-29T05:16:02;2.90;;;2.28;;
56960;SDS011;42857;49.768;22.716;2022-09-29T05:18:28;2.83;;;2.00;;
56960;SDS011;42857;49.768;22.716;2022-09-29T05:20:54;2.83;;;1.50;;
56960;SDS011;42857;49.768;22.716;2022-09-29T05:23:20;2.75;;;1.80;;
56960;SDS011;42857;49.768;22.716;2022-09-29T05:25:47;1.35;;;1.25;;
56960;SDS011;42857;49.768;22.716;2022-09-29T05:28:13;2.03;;;1.40;;
56960;SDS011;42857;49.768;22.716;2022-09-29T05:30:39;3.70;;;1.83;;
56960;SDS011;42857;49.768;22.716;2022-09-29T05:33:05;1.83;;;1.60;;
56960;SDS011;42857;49.768;22.716;2022-09-29T05:35:31;5.10;;;1.80;;
56960;SDS011;42857;49.768;22.716;2022-09-29T05:37:57;1.67;;;1.58;;
56960;SDS011;42857;49.768;22.716;2022-09-29T05:40:23;1.70;;;1.42;;
56960;SDS011;42857;49.768;22.716;2022-09-29T05:42:49;2.85;;;1.42;;
56960;SDS011;42857;49.768;22.716;2022-09-29T05:45:15;2.40;;;1.45;;
56960;SDS011;42857;49.768;22.716;2022-09-29T05:47:41;1.40;;;1.30;;
56960;SDS011;42857;49.768;22.716;2022-09-29T05:50:09;2.08;;;1.33;;
56960;SDS011;42857;49.768;22.716;2022-09-29T05:52:35;1.40;;;1.30;;
56960;SDS011;42857;49.768;22.716;2022-09-29T05:55:01;1.42;;;1.33;;
56960;SDS011;42857;49.768;22.716;2022-09-29T05:57:27;2.85;;;2.03;;
56960;SDS011;42857;49.768;22.716;2022-09-29T05:59:53;2.03;;;1.50;;
56960;SDS011;42857;49.768;22.716;2022-09-29T06:02:19;1.23;;;1.13;;
56960;SDS011;42857;49.768;22.716;2022-09-29T06:04:45;1.30;;;1.10;;
56960;SDS011;42857;49.768;22.716;2022-09-29T06:07:11;1.48;;;1.38;;
56960;SDS011;42857;49.768;22.716;2022-09-29T06:09:37;1.70;;;1.60;;
56960;SDS011;42857;49.768;22.716;2022-09-29T06:12:04;3.15;;;2.00;;
56960;SDS011;42857;49.768;22.716;2022-09-29T06:14:29;1.70;;;1.60;;
56960;SDS011;42857;49.768;22.716;2022-09-29T06:16:55;1.95;;;1.33;;
56960;SDS011;42857;49.768;22.716;2022-09-29T06:19:21;3.92;;;3.50;;
56960;SDS011;42857;49.768;22.716;2022-09-29T06:21:47;7.78;;;5.80;;
56960;SDS011;42857;49.768;22.716;2022-09-29T06:24:13;2.05;;;1.85;;
56960;SDS011;42857;49.768;22.716;2022-09-29T06:26:39;4.20;;;1.90;;
56960;SDS011;42857;49.768;22.716;2022-09-29T06:29:05;3.55;;;2.78;;
56960;SDS011;42857;49.768;22.716;2022-09-29T06:31:31;3.55;;;2.42;;
56960;SDS011;42857;49.768;22.716;2022-09-29T06:33:58;2.83;;;2.10;;
56960;SDS011;42857;49.768;22.716;2022-09-29T06:36:25;3.25;;;2.20;;
56960;SDS011;42857;49.768;22.716;2022-09-29T06:39:12;3.08;;;2.70;;
56960;SDS011;42857;49.768;22.716;2022-09-29T06:41:38;4.45;;;3.30;;
56960;SDS011;42857;49.768;22.716;2022-09-29T06:44:05;2.88;;;2.40;;
56960;SDS011;42857;49.768;22.716;2022-09-29T06:46:31;6.22;;;3.13;;
56960;SDS011;42857;49.768;22.716;2022-09-29T06:48:57;5.20;;;3.35;;
56960;SDS011;42857;49.768;22.716;2022-09-29T06:51:24;3.42;;;2.85;;
56960;SDS011;42857;49.768;22.716;2022-09-29T06:53:50;3.88;;;3.20;;
56960;SDS011;42857;49.768;22.716;2022-09-29T06:56:17;3.30;;;2.70;;
56960;SDS011;42857;49.768;22.716;2022-09-29T06:58:43;3.83;;;3.35;;
56960;SDS011;42857;49.768;22.716;2022-09-29T07:01:10;2.95;;;2.65;;
56960;SDS011;42857;49.768;22.716;2022-09-29T07:03:36;3.58;;;2.50;;
56960;SDS011;42857;49.768;22.716;2022-09-29T07:06:03;3.05;;;2.55;;
56960;SDS011;42857;49.768;22.716;2022-09-29T07:08:29;3.45;;;2.85;;
56960;SDS011;42857;49.768;22.716;2022-09-29T07:10:55;3.03;;;2.42;;
56960;SDS011;42857;49.768;22.716;2022-09-29T07:13:21;3.72;;;2.58;;
56960;SDS011;42857;49.768;22.716;2022-09-29T07:15:47;4.05;;;3.35;;
56960;SDS011;42857;49.768;22.716;2022-09-29T07:18:13;4.35;;;3.35;;
56960;SDS011;42857;49.768;22.716;2022-09-29T07:20:39;4.53;;;3.03;;
56960;SDS011;42857;49.768;22.716;2022-09-29T07:23:06;3.45;;;2.55;;
56960;SDS011;42857;49.768;22.716;2022-09-29T07:25:33;4.38;;;2.97;;
56960;SDS011;42857;49.768;22.716;2022-09-29T07:27:59;3.20;;;2.50;;
56960;SDS011;42857;49.768;22.716;2022-09-29T07:30:25;4.53;;;2.80;;
56960;SDS011;42857;49.768;22.716;2022-09-29T07:32:52;2.75;;;2.40;;
56960;SDS011;42857;49.768;22.716;2022-09-29T07:35:19;4.25;;;2.65;;
56960;SDS011;42857;49.768;22.716;2022-09-29T07:37:51;2.83;;;2.38;;
56960;SDS011;42857;49.768;22.716;2022-09-29T07:40:18;3.92;;;2.40;;
56960;SDS011;42857;49.768;22.716;2022-09-29T07:42:44;2.33;;;2.10;;
56960;SDS011;42857;49.768;22.716;2022-09-29T07:45:10;3.03;;;2.50;;
56960;SDS011;42857;49.768;22.716;2022-09-29T07:47:36;4.38;;;2.80;;
56960;SDS011;42857;49.768;22.716;2022-09-29T07:50:02;4.28;;;1.88;;
56960;SDS011;42857;49.768;22.716;2022-09-29T07:52:28;2.60;;;2.00;;
56960;SDS011;42857;49.768;22.716;2022-09-29T07:54:54;2.47;;;2.08;;
56960;SDS011;42857;49.768;22.716;2022-09-29T07:57:20;2.13;;;1.98;;
56960;SDS011;42857;49.768;22.716;2022-09-29T07:59:45;2.22;;;2.03;;
56960;SDS011;42857;49.768;22.716;2022-09-29T08:02:11;3.38;;;2.90;;
56960;SDS011;42857;49.768;22.716;2022-09-29T08:04:37;3.17;;;2.55;;
56960;SDS011;42857;49.768;22.716;2022-09-29T08:07:03;3.85;;;2.28;;
56960;SDS011;42857;49.768;22.716;2022-09-29T08:09:29;3.30;;;2.17;;
56960;SDS011;42857;49.768;22.716;2022-09-29T08:11:55;2.22;;;1.80;;
56960;SDS011;42857;49.768;22.716;2022-09-29T08:14:22;2.50;;;2.15;;
56960;SDS011;42857;49.768;22.716;2022-09-29T08:16:48;2.83;;;2.60;;
56960;SDS011;42857;49.768;22.716;2022-09-29T08:19:14;3.38;;;1.98;;
56960;SDS011;42857;49.768;22.716;2022-09-29T08:21:39;5.28;;;2.20;;
56960;SDS011;42857;49.768;22.716;2022-09-29T08:24:05;2.75;;;2.45;;
56960;SDS011;42857;49.768;22.716;2022-09-29T08:26:33;4.22;;;2.58;;
56960;SDS011;42857;49.768;22.716;2022-09-29T08:29:03;3.55;;;2.70;;
56960;SDS011;42857;49.768;22.716;2022-09-29T08:31:29;2.45;;;1.90;;
56960;SDS011;42857;49.768;22.716;2022-09-29T08:33:55;2.50;;;2.05;;
56960;SDS011;42857;49.768;22.716;2022-09-29T08:38:51;2.65;;;2.35;;
56960;SDS011;42857;49.768;22.716;2022-09-29T08:43:50;2.80;;;2.50;;
56960;SDS011;42857;49.768;22.716;2022-09-29T08:46:26;3.37;;;2.10;;
56960;SDS011;42857;49.768;22.716;2022-09-29T08:48:53;2.25;;;1.95;;
56960;SDS011;42857;49.768;22.716;2022-09-29T08:51:24;2.28;;;1.90;;
56960;SDS011;42857;49.768;22.716;2022-09-29T08:53:51;2.15;;;1.83;;
56960;SDS011;42857;49.768;22.716;2022-09-29T08:56:18;2.20;;;1.92;;
56960;SDS011;42857;49.768;22.716;2022-09-29T08:58:45;2.65;;;2.00;;
56960;SDS011;42857;49.768;22.716;2022-09-29T09:01:18;3.03;;;2.08;;
56960;SDS011;42857;49.768;22.716;2022-09-29T09:06:33;2.28;;;2.08;;
56960;SDS011;42857;49.768;22.716;2022-09-29T09:09:04;2.42;;;2.05;;
56960;SDS011;42857;49.768;22.716;2022-09-29T09:19:35;3.28;;;2.47;;
56960;SDS011;42857;49.768;22.716;2022-09-29T09:22:13;3.42;;;2.92;;
56960;SDS011;42857;49.768;22.716;2022-09-29T09:25:00;4.05;;;2.80;;
56960;SDS011;42857;49.768;22.716;2022-09-29T09:27:38;8.15;;;5.85;;
56960;SDS011;42857;49.768;22.716;2022-09-29T09:30:16;3.10;;;2.80;;
56960;SDS011;42857;49.768;22.716;2022-09-29T09:32:53;2.70;;;2.20;;
56960;SDS011;42857;49.768;22.716;2022-09-29T09:35:37;2.55;;;2.13;;
56960;SDS011;42857;49.768;22.716;2022-09-29T09:38:05;4.63;;;3.53;;
56960;SDS011;42857;49.768;22.716;2022-09-29T09:40:37;4.53;;;3.20;;
56960;SDS011;42857;49.768;22.716;2022-09-29T09:45:38;3.70;;;2.78;;
56960;SDS011;42857;49.768;22.716;2022-09-29T09:48:11;16.40;;;11.18;;
56960;SDS011;42857;49.768;22.716;2022-09-29T09:50:39;7.32;;;5.20;;
56960;SDS011;42857;49.768;22.716;2022-09-29T09:53:15;2.85;;;2.42;;
56960;SDS011;42857;49.768;22.716;2022-09-29T09:55:42;2.58;;;2.38;;
56960;SDS011;42857;49.768;22.716;2022-09-29T10:00:59;3.13;;;2.80;;
56960;SDS011;42857;49.768;22.716;2022-09-29T10:03:29;2.28;;;2.08;;
56960;SDS011;42857;49.768;22.716;2022-09-29T10:08:23;2.13;;;1.92;;
56960;SDS011;42857;49.768;22.716;2022-09-29T10:10:50;2.95;;;1.90;;
56960;SDS011;42857;49.768;22.716;2022-09-29T10:13:16;2.35;;;1.80;;
56960;SDS011;42857;49.768;22.716;2022-09-29T10:16:26;2.90;;;2.13;;
56960;SDS011;42857;49.768;22.716;2022-09-29T10:18:39;2.78;;;2.17;;
56960;SDS011;42857;49.768;22.716;2022-09-29T10:23:57;2.65;;;2.13;;
56960;SDS011;42857;49.768;22.716;2022-09-29T10:26:43;2.30;;;2.10;;
56960;SDS011;42857;49.768;22.716;2022-09-29T10:29:33;2.50;;;2.30;;
56960;SDS011;42857;49.768;22.716;2022-09-29T10:32:08;2.00;;;1.88;;
56960;SDS011;42857;49.768;22.716;2022-09-29T10:34:35;2.33;;;1.90;;
56960;SDS011;42857;49.768;22.716;2022-09-29T10:37:03;3.08;;;2.35;;
56960;SDS011;42857;49.768;22.716;2022-09-29T10:41:58;3.27;;;2.53;;
56960;SDS011;42857;49.768;22.716;2022-09-29T10:44:29;4.60;;;3.33;;
56960;SDS011;42857;49.768;22.716;2022-09-29T10:46:55;4.82;;;4.30;;
56960;SDS011;42857;49.768;22.716;2022-09-29T10:49:22;5.90;;;4.80;;
56960;SDS011;42857;49.768;22.716;2022-09-29T10:52:05;6.07;;;4.15;;
56960;SDS011;42857;49.768;22.716;2022-09-29T10:54:32;5.25;;;4.75;;
56960;SDS011;42857;49.768;22.716;2022-09-29T10:56:59;6.63;;;4.75;;
56960;SDS011;42857;49.768;22.716;2022-09-29T10:59:25;7.85;;;6.95;;
56960;SDS011;42857;49.768;22.716;2022-09-29T11:01:55;8.50;;;7.53;;
56960;SDS011;42857;49.768;22.716;2022-09-29T11:04:32;9.45;;;8.10;;
56960;SDS011;42857;49.768;22.716;2022-09-29T11:07:07;7.57;;;6.40;;
56960;SDS011;42857;49.768;22.716;2022-09-29T11:09:38;11.20;;;9.60;;
56960;SDS011;42857;49.768;22.716;2022-09-29T11:12:05;10.52;;;8.18;;
56960;SDS011;42857;49.768;22.716;2022-09-29T11:14:38;5.78;;;4.97;;
56960;SDS011;42857;49.768;22.716;2022-09-29T11:19:58;34.85;;;20.77;;
56960;SDS011;42857;49.768;22.716;2022-09-29T11:28:05;17.83;;;10.30;;
56960;SDS011;42857;49.768;22.716;2022-09-29T11:30:41;31.67;;;19.15;;
56960;SDS011;42857;49.768;22.716;2022-09-29T11:33:17;20.83;;;11.38;;
56960;SDS011;42857;49.768;22.716;2022-09-29T11:38:17;8.38;;;5.75;;
56960;SDS011;42857;49.768;22.716;2022-09-29T11:43:42;6.53;;;5.55;;
56960;SDS011;42857;49.768;22.716;2022-09-29T11:46:23;7.35;;;5.90;;
56960;SDS011;42857;49.768;22.716;2022-09-29T11:48:57;4.80;;;4.30;;
56960;SDS011;42857;49.768;22.716;2022-09-29T11:54:20;4.38;;;3.75;;
56960;SDS011;42857;49.768;22.716;2022-09-29T11:56:54;3.92;;;3.53;;
56960;SDS011;42857;49.768;22.716;2022-09-29T11:59:40;5.95;;;3.85;;
56960;SDS011;42857;49.768;22.716;2022-09-29T12:02:23;4.00;;;3.35;;
56960;SDS011;42857;49.768;22.716;2022-09-29T12:04:56;4.25;;;3.78;;
56960;SDS011;42857;49.768;22.716;2022-09-29T12:17:50;4.38;;;3.67;;
56960;SDS011;42857;49.768;22.716;2022-09-29T12:20:18;6.03;;;4.60;;
56960;SDS011;42857;49.768;22.716;2022-09-29T12:22:45;6.43;;;4.43;;
56960;SDS011;42857;49.768;22.716;2022-09-29T12:25:14;5.07;;;4.32;;
56960;SDS011;42857;49.768;22.716;2022-09-29T12:27:40;6.72;;;4.80;;
56960;SDS011;42857;49.768;22.716;2022-09-29T12:30:22;6.20;;;5.15;;
56960;SDS011;42857;49.768;22.716;2022-09-29T12:35:40;7.68;;;5.47;;
56960;SDS011;42857;49.768;22.716;2022-09-29T12:38:11;7.18;;;5.20;;
56960;SDS011;42857;49.768;22.716;2022-09-29T12:40:41;10.60;;;7.80;;
56960;SDS011;42857;49.768;22.716;2022-09-29T12:45:43;9.60;;;7.25;;
56960;SDS011;42857;49.768;22.716;2022-09-29T12:48:28;7.03;;;6.30;;
56960;SDS011;42857;49.768;22.716;2022-09-29T12:58:41;6.15;;;5.47;;
56960;SDS011;42857;49.768;22.716;2022-09-29T13:01:17;5.65;;;5.00;;
56960;SDS011;42857;49.768;22.716;2022-09-29T13:06:33;6.07;;;4.85;;
56960;SDS011;42857;49.768;22.716;2022-09-29T13:12:04;3.63;;;3.13;;
56960;SDS011;42857;49.768;22.716;2022-09-29T13:19:50;5.20;;;3.20;;
56960;SDS011;42857;49.768;22.716;2022-09-29T13:22:26;3.15;;;2.85;;
56960;SDS011;42857;49.768;22.716;2022-09-29T13:24:57;3.20;;;2.72;;
56960;SDS011;42857;49.768;22.716;2022-09-29T13:27:30;3.58;;;3.17;;
56960;SDS011;42857;49.768;22.716;2022-09-29T13:30:11;3.17;;;2.70;;
56960;SDS011;42857;49.768;22.716;2022-09-29T13:32:42;3.22;;;2.92;;
56960;SDS011;42857;49.768;22.716;2022-09-29T13:35:10;3.22;;;2.92;;
56960;SDS011;42857;49.768;22.716;2022-09-29T13:40:36;4.20;;;3.80;;
56960;SDS011;42857;49.768;22.716;2022-09-29T13:43:02;5.22;;;4.68;;
56960;SDS011;42857;49.768;22.716;2022-09-29T13:48:02;5.30;;;4.10;;
56960;SDS011;42857;49.768;22.716;2022-09-29T13:50:48;6.28;;;4.90;;
56960;SDS011;42857;49.768;22.716;2022-09-29T14:00:47;7.22;;;5.72;;
56960;SDS011;42857;49.768;22.716;2022-09-29T14:03:20;6.80;;;5.70;;
56960;SDS011;42857;49.768;22.716;2022-09-29T14:05:51;8.55;;;6.30;;
56960;SDS011;42857;49.768;22.716;2022-09-29T14:08:19;8.40;;;4.57;;
56960;SDS011;42857;49.768;22.716;2022-09-29T14:10:49;4.43;;;4.00;;
56960;SDS011;42857;49.768;22.716;2022-09-29T14:13:24;9.23;;;5.07;;
56960;SDS011;42857;49.768;22.716;2022-09-29T14:18:36;5.17;;;4.03;;
56960;SDS011;42857;49.768;22.716;2022-09-29T14:21:04;6.10;;;3.92;;
56960;SDS011;42857;49.768;22.716;2022-09-29T14:29:03;5.43;;;4.90;;
56960;SDS011;42857;49.768;22.716;2022-09-29T14:31:31;5.07;;;3.83;;
56960;SDS011;42857;49.768;22.716;2022-09-29T14:33:57;4.90;;;3.28;;
56960;SDS011;42857;49.768;22.716;2022-09-29T14:36:26;3.38;;;3.08;;
56960;SDS011;42857;49.768;22.716;2022-09-29T14:38:53;5.93;;;4.97;;
56960;SDS011;42857;49.768;22.716;2022-09-29T14:41:29;5.00;;;4.50;;
56960;SDS011;42857;49.768;22.716;2022-09-29T14:43:58;4.13;;;3.42;;
56960;SDS011;42857;49.768;22.716;2022-09-29T14:46:32;4.53;;;3.85;;
56960;SDS011;42857;49.768;22.716;2022-09-29T14:57:55;6.85;;;4.22;;
56960;SDS011;42857;49.768;22.716;2022-09-29T15:00:58;5.57;;;3.70;;
56960;SDS011;42857;49.768;22.716;2022-09-29T15:03:25;3.70;;;3.17;;
56960;SDS011;42857;49.768;22.716;2022-09-29T15:06:08;4.40;;;4.00;;
56960;SDS011;42857;49.768;22.716;2022-09-29T15:08:39;5.00;;;4.50;;
56960;SDS011;42857;49.768;22.716;2022-09-29T15:19:25;8.07;;;5.72;;
56960;SDS011;42857;49.768;22.716;2022-09-29T15:22:14;7.55;;;5.18;;
56960;SDS011;42857;49.768;22.716;2022-09-29T15:27:11;5.15;;;3.70;;
56960;SDS011;42857;49.768;22.716;2022-09-29T15:29:38;5.18;;;4.68;;
56960;SDS011;42857;49.768;22.716;2022-09-29T15:32:10;4.00;;;3.60;;
56960;SDS011;42857;49.768;22.716;2022-09-29T15:34:38;5.28;;;4.20;;
56960;SDS011;42857;49.768;22.716;2022-09-29T15:37:04;3.15;;;2.63;;
56960;SDS011;42857;49.768;22.716;2022-09-29T15:42:00;8.02;;;6.50;;
56960;SDS011;42857;49.768;22.716;2022-09-29T15:44:27;8.40;;;6.68;;
56960;SDS011;42857;49.768;22.716;2022-09-29T15:46:56;5.75;;;4.43;;
56960;SDS011;42857;49.768;22.716;2022-09-29T15:49:23;12.35;;;8.63;;
56960;SDS011;42857;49.768;22.716;2022-09-29T15:54:47;33.80;;;19.30;;
56960;SDS011;42857;49.768;22.716;2022-09-29T15:57:27;17.55;;;12.85;;
56960;SDS011;42857;49.768;22.716;2022-09-29T16:03:03;8.60;;;6.82;;
56960;SDS011;42857;49.768;22.716;2022-09-29T16:05:32;7.15;;;5.95;;
56960;SDS011;42857;49.768;22.716;2022-09-29T16:08:00;6.85;;;4.70;;
56960;SDS011;42857;49.768;22.716;2022-09-29T16:10:28;11.70;;;7.72;;
56960;SDS011;42857;49.768;22.716;2022-09-29T16:12:56;22.52;;;13.68;;
56960;SDS011;42857;49.768;22.716;2022-09-29T16:15:27;12.05;;;8.93;;
56960;SDS011;42857;49.768;22.716;2022-09-29T16:17:54;13.25;;;8.90;;
56960;SDS011;42857;49.768;22.716;2022-09-29T16:20:25;12.50;;;9.93;;
56960;SDS011;42857;49.768;22.716;2022-09-29T16:22:53;16.98;;;11.73;;
56960;SDS011;42857;49.768;22.716;2022-09-29T16:25:26;13.40;;;10.52;;
56960;SDS011;42857;49.768;22.716;2022-09-29T16:27:56;13.77;;;10.18;;
56960;SDS011;42857;49.768;22.716;2022-09-29T16:30:27;13.43;;;9.60;;
56960;SDS011;42857;49.768;22.716;2022-09-29T16:32:54;11.73;;;8.23;;
56960;SDS011;42857;49.768;22.716;2022-09-29T16:35:37;12.07;;;7.70;;
56960;SDS011;42857;49.768;22.716;2022-09-29T16:38:14;10.35;;;8.18;;
56960;SDS011;42857;49.768;22.716;2022-09-29T16:40:42;11.00;;;8.18;;
56960;SDS011;42857;49.768;22.716;2022-09-29T16:43:22;10.73;;;8.10;;
56960;SDS011;42857;49.768;22.716;2022-09-29T16:45:50;14.20;;;8.77;;
56960;SDS011;42857;49.768;22.716;2022-09-29T16:48:17;11.88;;;9.40;;
56960;SDS011;42857;49.768;22.716;2022-09-29T16:50:44;10.43;;;8.20;;
56960;SDS011;42857;49.768;22.716;2022-09-29T16:53:18;13.15;;;9.07;;
56960;SDS011;42857;49.768;22.716;2022-09-29T16:55:59;68.95;;;33.38;;
56960;SDS011;42857;49.768;22.716;2022-09-29T16:58:26;41.72;;;25.27;;
56960;SDS011;42857;49.768;22.716;2022-09-29T17:00:54;13.65;;;9.30;;
56960;SDS011;42857;49.768;22.716;2022-09-29T17:03:20;25.20;;;18.92;;
56960;SDS011;42857;49.768;22.716;2022-09-29T17:05:46;23.58;;;19.15;;
56960;SDS011;42857;49.768;22.716;2022-09-29T17:08:23;14.45;;;10.48;;
56960;SDS011;42857;49.768;22.716;2022-09-29T17:10:50;19.35;;;12.68;;
56960;SDS011;42857;49.768;22.716;2022-09-29T17:13:16;200.13;;;119.78;;